sensor_id;sensor_type;location;lat;lon;timestamp;temperature;humidity
15394;DHT22;7795;47.986;11.868;2023-03-01T00:00:37;5.10;70.30
15394;DHT22;7795;47.986;11.868;2023-03-01T00:03:03;5.10;70.40
15394;DHT22;7795;47.986;11.868;2023-03-01T00:05:29;5.10;70.30
15394;DHT22;7795;47.986;11.868;2023-03-01T00:07:56;5.10;70.30
15394;DHT22;7795;47.986;11.868;2023-03-01T00:10:21;5.10;70.30
15394;DHT22;7795;47.986;11.868;2023-03-01T00:12:47;5.00;70.30
15394;DHT22;7795;47.986;11.868;2023-03-01T00:15:13;5.00;70.50
15394;DHT22;7795;47.986;11.868;2023-03-01T00:17:39;5.00;70.30
15394;DHT22;7795;47.986;11.868;2023-03-01T00:20:05;5.00;70.40
15394;DHT22;7795;47.986;11.868;2023-03-01T00:22:36;5.00;70.40
15394;DHT22;7795;47.986;11.868;2023-03-01T00:25:03;5.00;70.30
15394;DHT22;7795;47.986;11.868;2023-03-01T00:27:29;5.00;70.30
15394;DHT22;7795;47.986;11.868;2023-03-01T00:29:55;5.00;70.40
15394;DHT22;7795;47.986;11.868;2023-03-01T00:32:21;5.00;70.30
15394;DHT22;7795;47.986;11.868;2023-03-01T00:34:47;5.00;70.40
15394;DHT22;7795;47.986;11.868;2023-03-01T00:37:19;5.00;70.50
15394;DHT22;7795;47.986;11.868;2023-03-01T00:39:45;5.00;70.50
15394;DHT22;7795;47.986;11.868;2023-03-01T00:42:12;5.00;71.30
15394;DHT22;7795;47.986;11.868;2023-03-01T00:44:38;5.00;70.60
15394;DHT22;7795;47.986;11.868;2023-03-01T00:47:04;5.00;70.60
15394;DHT22;7795;47.986;11.868;2023-03-01T00:49:29;5.00;70.60
15394;DHT22;7795;47.986;11.868;2023-03-01T00:51:55;5.00;70.60
15394;DHT22;7795;47.986;11.868;2023-03-01T00:54:21;5.00;70.50
15394;DHT22;7795;47.986;11.868;2023-03-01T00:56:47;5.00;70.50
15394;DHT22;7795;47.986;11.868;2023-03-01T00:59:14;5.00;70.40
15394;DHT22;7795;47.986;11.868;2023-03-01T01:01:40;5.00;70.40
15394;DHT22;7795;47.986;11.868;2023-03-01T01:04:08;5.00;71.20
15394;DHT22;7795;47.986;11.868;2023-03-01T01:06:36;5.00;70.40
15394;DHT22;7795;47.986;11.868;2023-03-01T01:09:02;5.00;70.40
15394;DHT22;7795;47.986;11.868;2023-03-01T01:11:30;5.00;70.40
15394;DHT22;7795;47.986;11.868;2023-03-01T01:13:57;5.00;70.30
15394;DHT22;7795;47.986;11.868;2023-03-01T01:16:25;4.90;70.30
15394;DHT22;7795;47.986;11.868;2023-03-01T01:18:52;4.90;70.30
15394;DHT22;7795;47.986;11.868;2023-03-01T01:21:20;4.90;70.30
15394;DHT22;7795;47.986;11.868;2023-03-01T01:23:47;4.90;70.50
15394;DHT22;7795;47.986;11.868;2023-03-01T01:26:14;4.90;70.50
15394;DHT22;7795;47.986;11.868;2023-03-01T01:28:40;4.90;70.40
15394;DHT22;7795;47.986;11.868;2023-03-01T01:31:06;4.90;70.40
15394;DHT22;7795;47.986;11.868;2023-03-01T01:33:34;4.90;70.50
15394;DHT22;7795;47.986;11.868;2023-03-01T01:36:00;4.90;70.50
15394;DHT22;7795;47.986;11.868;2023-03-01T01:38:25;4.90;70.50
15394;DHT22;7795;47.986;11.868;2023-03-01T01:40:51;4.90;70.50
15394;DHT22;7795;47.986;11.868;2023-03-01T01:43:22;4.90;70.50
15394;DHT22;7795;47.986;11.868;2023-03-01T01:45:48;4.90;70.60
15394;DHT22;7795;47.986;11.868;2023-03-01T01:48:18;4.90;70.50
15394;DHT22;7795;47.986;11.868;2023-03-01T01:50:52;4.90;70.60
15394;DHT22;7795;47.986;11.868;2023-03-01T01:53:19;4.90;70.60
15394;DHT22;7795;47.986;11.868;2023-03-01T01:55:50;4.80;70.40
15394;DHT22;7795;47.986;11.868;2023-03-01T01:58:19;4.80;70.40
15394;DHT22;7795;47.986;11.868;2023-03-01T02:00:47;4.80;70.50
15394;DHT22;7795;47.986;11.868;2023-03-01T02:03:15;4.80;70.50
15394;DHT22;7795;47.986;11.868;2023-03-01T02:05:49;4.80;70.50
15394;DHT22;7795;47.986;11.868;2023-03-01T02:08:19;4.70;71.20
15394;DHT22;7795;47.986;11.868;2023-03-01T02:10:45;4.70;70.50
15394;DHT22;7795;47.986;11.868;2023-03-01T02:13:12;4.70;71.30
15394;DHT22;7795;47.986;11.868;2023-03-01T02:15:39;4.70;70.50
15394;DHT22;7795;47.986;11.868;2023-03-01T02:18:06;4.70;70.50
15394;DHT22;7795;47.986;11.868;2023-03-01T02:20:37;4.70;70.60
15394;DHT22;7795;47.986;11.868;2023-03-01T02:23:05;4.70;70.50
15394;DHT22;7795;47.986;11.868;2023-03-01T02:25:36;4.70;70.60
15394;DHT22;7795;47.986;11.868;2023-03-01T02:28:10;4.60;70.60
15394;DHT22;7795;47.986;11.868;2023-03-01T02:30:39;4.60;70.60
15394;DHT22;7795;47.986;11.868;2023-03-01T02:33:25;4.60;70.60
15394;DHT22;7795;47.986;11.868;2023-03-01T02:35:53;4.60;70.70
15394;DHT22;7795;47.986;11.868;2023-03-01T02:38:20;4.60;70.80
15394;DHT22;7795;47.986;11.868;2023-03-01T02:40:46;4.60;70.80
15394;DHT22;7795;47.986;11.868;2023-03-01T02:43:13;4.60;71.50
15394;DHT22;7795;47.986;11.868;2023-03-01T02:45:48;4.60;70.80
15394;DHT22;7795;47.986;11.868;2023-03-01T02:48:15;4.60;70.80
15394;DHT22;7795;47.986;11.868;2023-03-01T02:50:55;4.50;70.70
15394;DHT22;7795;47.986;11.868;2023-03-01T02:53:32;4.60;70.90
15394;DHT22;7795;47.986;11.868;2023-03-01T02:56:00;4.50;70.90
15394;DHT22;7795;47.986;11.868;2023-03-01T02:58:26;4.50;70.80
15394;DHT22;7795;47.986;11.868;2023-03-01T03:00:54;4.50;70.80
15394;DHT22;7795;47.986;11.868;2023-03-01T03:03:20;4.50;70.80
15394;DHT22;7795;47.986;11.868;2023-03-01T03:05:47;4.50;70.80
15394;DHT22;7795;47.986;11.868;2023-03-01T03:08:14;4.50;70.70
15394;DHT22;7795;47.986;11.868;2023-03-01T03:10:42;4.50;70.70
15394;DHT22;7795;47.986;11.868;2023-03-01T03:13:12;4.40;70.70
15394;DHT22;7795;47.986;11.868;2023-03-01T03:15:39;4.40;70.70
15394;DHT22;7795;47.986;11.868;2023-03-01T03:18:08;4.40;70.80
15394;DHT22;7795;47.986;11.868;2023-03-01T03:20:34;4.40;70.70
15394;DHT22;7795;47.986;11.868;2023-03-01T03:23:01;4.40;70.90
15394;DHT22;7795;47.986;11.868;2023-03-01T03:25:28;4.40;70.90
15394;DHT22;7795;47.986;11.868;2023-03-01T03:27:55;4.40;70.90
15394;DHT22;7795;47.986;11.868;2023-03-01T03:30:26;4.40;71.00
15394;DHT22;7795;47.986;11.868;2023-03-01T03:32:52;4.40;70.90
15394;DHT22;7795;47.986;11.868;2023-03-01T03:35:20;4.40;70.70
15394;DHT22;7795;47.986;11.868;2023-03-01T03:37:46;4.40;70.80
15394;DHT22;7795;47.986;11.868;2023-03-01T03:40:28;4.40;70.90
15394;DHT22;7795;47.986;11.868;2023-03-01T03:42:55;4.40;70.80
15394;DHT22;7795;47.986;11.868;2023-03-01T03:45:20;4.40;70.80
15394;DHT22;7795;47.986;11.868;2023-03-01T03:47:46;4.40;70.90
15394;DHT22;7795;47.986;11.868;2023-03-01T03:50:14;4.30;70.60
15394;DHT22;7795;47.986;11.868;2023-03-01T03:52:41;4.30;70.50
15394;DHT22;7795;47.986;11.868;2023-03-01T03:55:09;4.30;70.60
15394;DHT22;7795;47.986;11.868;2023-03-01T03:57:36;4.30;70.70
15394;DHT22;7795;47.986;11.868;2023-03-01T04:00:02;4.30;70.70
15394;DHT22;7795;47.986;11.868;2023-03-01T04:02:30;4.30;70.70
15394;DHT22;7795;47.986;11.868;2023-03-01T04:04:56;4.30;70.60
15394;DHT22;7795;47.986;11.868;2023-03-01T04:07:22;4.30;71.40
15394;DHT22;7795;47.986;11.868;2023-03-01T04:09:49;4.30;70.70
15394;DHT22;7795;47.986;11.868;2023-03-01T04:12:14;4.20;70.50
15394;DHT22;7795;47.986;11.868;2023-03-01T04:14:45;4.20;70.50
15394;DHT22;7795;47.986;11.868;2023-03-01T04:17:11;4.20;70.30
15394;DHT22;7795;47.986;11.868;2023-03-01T04:19:38;4.20;70.30
15394;DHT22;7795;47.986;11.868;2023-03-01T04:22:03;4.20;70.30
15394;DHT22;7795;47.986;11.868;2023-03-01T04:24:34;4.10;70.20
15394;DHT22;7795;47.986;11.868;2023-03-01T04:27:02;4.10;70.30
15394;DHT22;7795;47.986;11.868;2023-03-01T04:29:28;4.10;70.30
15394;DHT22;7795;47.986;11.868;2023-03-01T04:31:54;4.10;70.40
15394;DHT22;7795;47.986;11.868;2023-03-01T04:34:19;4.10;70.40
15394;DHT22;7795;47.986;11.868;2023-03-01T04:36:45;4.10;71.20
15394;DHT22;7795;47.986;11.868;2023-03-01T04:39:11;4.10;70.50
15394;DHT22;7795;47.986;11.868;2023-03-01T04:41:40;4.10;70.50
15394;DHT22;7795;47.986;11.868;2023-03-01T04:44:07;4.00;70.40
15394;DHT22;7795;47.986;11.868;2023-03-01T04:46:35;4.00;70.50
15394;DHT22;7795;47.986;11.868;2023-03-01T04:49:01;4.00;70.50
15394;DHT22;7795;47.986;11.868;2023-03-01T04:51:26;4.00;70.70
15394;DHT22;7795;47.986;11.868;2023-03-01T04:53:52;4.00;70.80
15394;DHT22;7795;47.986;11.868;2023-03-01T04:56:18;3.90;70.50
15394;DHT22;7795;47.986;11.868;2023-03-01T04:58:44;3.90;71.10
15394;DHT22;7795;47.986;11.868;2023-03-01T05:01:13;3.90;70.60
15394;DHT22;7795;47.986;11.868;2023-03-01T05:03:43;3.90;70.70
15394;DHT22;7795;47.986;11.868;2023-03-01T05:06:09;3.80;70.60
15394;DHT22;7795;47.986;11.868;2023-03-01T05:08:34;3.80;70.50
15394;DHT22;7795;47.986;11.868;2023-03-01T05:11:02;3.80;70.50
15394;DHT22;7795;47.986;11.868;2023-03-01T05:13:28;3.80;71.40
15394;DHT22;7795;47.986;11.868;2023-03-01T05:15:56;3.70;70.50
15394;DHT22;7795;47.986;11.868;2023-03-01T05:18:24;3.70;70.50
15394;DHT22;7795;47.986;11.868;2023-03-01T05:20:53;3.70;70.50
15394;DHT22;7795;47.986;11.868;2023-03-01T05:23:21;3.60;70.60
15394;DHT22;7795;47.986;11.868;2023-03-01T05:25:47;3.60;70.60
15394;DHT22;7795;47.986;11.868;2023-03-01T05:28:13;3.60;70.60
15394;DHT22;7795;47.986;11.868;2023-03-01T05:30:39;3.60;70.70
15394;DHT22;7795;47.986;11.868;2023-03-01T05:33:06;3.50;70.70
15394;DHT22;7795;47.986;11.868;2023-03-01T05:35:40;3.50;70.80
15394;DHT22;7795;47.986;11.868;2023-03-01T05:38:07;3.50;70.70
15394;DHT22;7795;47.986;11.868;2023-03-01T05:40:34;3.50;70.70
15394;DHT22;7795;47.986;11.868;2023-03-01T05:43:00;3.40;70.70
15394;DHT22;7795;47.986;11.868;2023-03-01T05:45:27;3.40;70.80
15394;DHT22;7795;47.986;11.868;2023-03-01T05:47:53;3.40;70.90
15394;DHT22;7795;47.986;11.868;2023-03-01T05:50:22;3.40;70.90
15394;DHT22;7795;47.986;11.868;2023-03-01T05:52:51;3.40;71.00
15394;DHT22;7795;47.986;11.868;2023-03-01T05:55:19;3.30;70.80
15394;DHT22;7795;47.986;11.868;2023-03-01T05:57:46;3.30;70.80
15394;DHT22;7795;47.986;11.868;2023-03-01T06:00:13;3.30;71.00
15394;DHT22;7795;47.986;11.868;2023-03-01T06:02:41;3.30;71.00
15394;DHT22;7795;47.986;11.868;2023-03-01T06:05:09;3.30;71.10
15394;DHT22;7795;47.986;11.868;2023-03-01T06:07:35;3.30;71.10
15394;DHT22;7795;47.986;11.868;2023-03-01T06:10:03;3.20;71.20
15394;DHT22;7795;47.986;11.868;2023-03-01T06:12:33;3.30;71.40
15394;DHT22;7795;47.986;11.868;2023-03-01T06:14:59;3.30;71.40
15394;DHT22;7795;47.986;11.868;2023-03-01T06:17:25;3.20;71.30
15394;DHT22;7795;47.986;11.868;2023-03-01T06:19:51;3.30;71.30
15394;DHT22;7795;47.986;11.868;2023-03-01T06:22:17;3.30;71.30
15394;DHT22;7795;47.986;11.868;2023-03-01T06:24:42;3.30;71.40
15394;DHT22;7795;47.986;11.868;2023-03-01T06:27:11;3.30;71.50
15394;DHT22;7795;47.986;11.868;2023-03-01T06:29:36;3.30;71.40
15394;DHT22;7795;47.986;11.868;2023-03-01T06:32:02;3.30;71.40
15394;DHT22;7795;47.986;11.868;2023-03-01T06:34:28;3.30;71.40
15394;DHT22;7795;47.986;11.868;2023-03-01T06:36:54;3.40;71.30
15394;DHT22;7795;47.986;11.868;2023-03-01T06:39:20;3.30;71.20
15394;DHT22;7795;47.986;11.868;2023-03-01T06:41:45;3.30;71.30
15394;DHT22;7795;47.986;11.868;2023-03-01T06:44:12;3.30;71.20
15394;DHT22;7795;47.986;11.868;2023-03-01T06:46:39;3.30;71.30
15394;DHT22;7795;47.986;11.868;2023-03-01T06:49:05;3.30;71.40
15394;DHT22;7795;47.986;11.868;2023-03-01T06:51:35;3.30;71.60
15394;DHT22;7795;47.986;11.868;2023-03-01T06:54:00;3.30;71.60
15394;DHT22;7795;47.986;11.868;2023-03-01T06:56:26;3.30;71.50
15394;DHT22;7795;47.986;11.868;2023-03-01T06:58:52;3.30;71.60
15394;DHT22;7795;47.986;11.868;2023-03-01T07:01:19;3.40;71.70
15394;DHT22;7795;47.986;11.868;2023-03-01T07:03:45;3.40;72.00
15394;DHT22;7795;47.986;11.868;2023-03-01T07:06:10;3.40;72.00
15394;DHT22;7795;47.986;11.868;2023-03-01T07:08:36;3.40;71.90
15394;DHT22;7795;47.986;11.868;2023-03-01T07:11:02;3.40;71.80
15394;DHT22;7795;47.986;11.868;2023-03-01T07:13:29;3.40;71.90
15394;DHT22;7795;47.986;11.868;2023-03-01T07:15:55;3.40;71.70
15394;DHT22;7795;47.986;11.868;2023-03-01T07:18:22;3.40;71.80
15394;DHT22;7795;47.986;11.868;2023-03-01T07:20:47;3.40;71.80
15394;DHT22;7795;47.986;11.868;2023-03-01T07:23:13;3.40;71.80
15394;DHT22;7795;47.986;11.868;2023-03-01T07:25:39;3.50;71.70
15394;DHT22;7795;47.986;11.868;2023-03-01T07:28:05;3.50;71.50
15394;DHT22;7795;47.986;11.868;2023-03-01T07:30:30;3.50;71.60
15394;DHT22;7795;47.986;11.868;2023-03-01T07:32:57;3.50;72.40
15394;DHT22;7795;47.986;11.868;2023-03-01T07:35:25;3.50;71.50
15394;DHT22;7795;47.986;11.868;2023-03-01T07:37:51;3.50;71.60
15394;DHT22;7795;47.986;11.868;2023-03-01T07:40:17;3.50;71.50
15394;DHT22;7795;47.986;11.868;2023-03-01T07:42:43;3.50;71.60
15394;DHT22;7795;47.986;11.868;2023-03-01T07:45:10;3.60;71.80
15394;DHT22;7795;47.986;11.868;2023-03-01T07:47:35;3.60;71.80
15394;DHT22;7795;47.986;11.868;2023-03-01T07:50:01;3.60;71.60
15394;DHT22;7795;47.986;11.868;2023-03-01T07:52:29;3.60;71.50
15394;DHT22;7795;47.986;11.868;2023-03-01T07:54:56;3.70;71.40
15394;DHT22;7795;47.986;11.868;2023-03-01T07:57:22;3.70;71.40
15394;DHT22;7795;47.986;11.868;2023-03-01T07:59:47;3.60;71.50
15394;DHT22;7795;47.986;11.868;2023-03-01T08:02:13;3.70;71.60
15394;DHT22;7795;47.986;11.868;2023-03-01T08:04:40;3.70;71.70
15394;DHT22;7795;47.986;11.868;2023-03-01T08:07:06;3.70;71.70
15394;DHT22;7795;47.986;11.868;2023-03-01T08:09:34;3.70;71.70
15394;DHT22;7795;47.986;11.868;2023-03-01T08:12:00;3.80;71.80
15394;DHT22;7795;47.986;11.868;2023-03-01T08:14:26;3.80;71.70
15394;DHT22;7795;47.986;11.868;2023-03-01T08:16:51;3.80;72.40
15394;DHT22;7795;47.986;11.868;2023-03-01T08:19:17;3.90;71.80
15394;DHT22;7795;47.986;11.868;2023-03-01T08:21:43;3.90;71.70
15394;DHT22;7795;47.986;11.868;2023-03-01T08:24:09;3.90;71.70
15394;DHT22;7795;47.986;11.868;2023-03-01T08:26:38;3.90;71.70
15394;DHT22;7795;47.986;11.868;2023-03-01T08:29:04;4.00;71.50
15394;DHT22;7795;47.986;11.868;2023-03-01T08:31:32;4.00;71.50
15394;DHT22;7795;47.986;11.868;2023-03-01T08:33:59;4.00;71.50
15394;DHT22;7795;47.986;11.868;2023-03-01T08:36:27;4.00;71.50
15394;DHT22;7795;47.986;11.868;2023-03-01T08:38:53;4.10;71.50
15394;DHT22;7795;47.986;11.868;2023-03-01T08:41:19;4.10;71.50
15394;DHT22;7795;47.986;11.868;2023-03-01T08:43:46;4.20;72.20
15394;DHT22;7795;47.986;11.868;2023-03-01T08:46:13;4.20;71.60
15394;DHT22;7795;47.986;11.868;2023-03-01T08:48:39;4.20;71.40
15394;DHT22;7795;47.986;11.868;2023-03-01T08:51:09;4.30;71.30
15394;DHT22;7795;47.986;11.868;2023-03-01T08:53:35;4.30;71.20
15394;DHT22;7795;47.986;11.868;2023-03-01T08:56:01;4.30;71.00
15394;DHT22;7795;47.986;11.868;2023-03-01T08:58:28;4.30;71.10
15394;DHT22;7795;47.986;11.868;2023-03-01T09:00:55;4.40;71.20
15394;DHT22;7795;47.986;11.868;2023-03-01T09:03:24;4.40;71.20
15394;DHT22;7795;47.986;11.868;2023-03-01T09:05:49;4.40;71.40
15394;DHT22;7795;47.986;11.868;2023-03-01T09:08:16;4.50;71.30
15394;DHT22;7795;47.986;11.868;2023-03-01T09:10:42;4.60;71.10
15394;DHT22;7795;47.986;11.868;2023-03-01T09:13:08;4.60;71.10
15394;DHT22;7795;47.986;11.868;2023-03-01T09:15:35;4.60;71.10
15394;DHT22;7795;47.986;11.868;2023-03-01T09:18:03;4.70;71.00
15394;DHT22;7795;47.986;11.868;2023-03-01T09:20:30;4.70;71.00
15394;DHT22;7795;47.986;11.868;2023-03-01T09:22:56;4.80;71.00
15394;DHT22;7795;47.986;11.868;2023-03-01T09:25:22;4.90;71.00
15394;DHT22;7795;47.986;11.868;2023-03-01T09:27:50;4.90;70.70
15394;DHT22;7795;47.986;11.868;2023-03-01T09:30:16;5.00;70.60
15394;DHT22;7795;47.986;11.868;2023-03-01T09:32:42;5.00;70.60
15394;DHT22;7795;47.986;11.868;2023-03-01T09:35:11;5.10;70.60
15394;DHT22;7795;47.986;11.868;2023-03-01T09:37:38;5.10;70.40
15394;DHT22;7795;47.986;11.868;2023-03-01T09:40:06;5.20;70.50
15394;DHT22;7795;47.986;11.868;2023-03-01T09:42:36;5.20;70.30
15394;DHT22;7795;47.986;11.868;2023-03-01T09:45:15;5.20;70.20
15394;DHT22;7795;47.986;11.868;2023-03-01T09:47:45;5.30;69.90
15394;DHT22;7795;47.986;11.868;2023-03-01T09:50:15;5.30;69.80
15394;DHT22;7795;47.986;11.868;2023-03-01T09:52:44;5.30;69.70
15394;DHT22;7795;47.986;11.868;2023-03-01T09:55:14;5.30;69.70
15394;DHT22;7795;47.986;11.868;2023-03-01T09:57:45;5.30;70.50
15394;DHT22;7795;47.986;11.868;2023-03-01T10:00:20;5.30;69.50
15394;DHT22;7795;47.986;11.868;2023-03-01T10:02:54;5.40;69.60
15394;DHT22;7795;47.986;11.868;2023-03-01T10:05:34;5.40;69.70
15394;DHT22;7795;47.986;11.868;2023-03-01T10:08:14;5.40;69.40
15394;DHT22;7795;47.986;11.868;2023-03-01T10:10:46;5.40;69.40
15394;DHT22;7795;47.986;11.868;2023-03-01T10:13:16;5.40;69.70
15394;DHT22;7795;47.986;11.868;2023-03-01T10:15:47;5.40;69.60
15394;DHT22;7795;47.986;11.868;2023-03-01T10:18:17;5.40;69.50
15394;DHT22;7795;47.986;11.868;2023-03-01T10:20:51;5.40;69.40
15394;DHT22;7795;47.986;11.868;2023-03-01T10:23:17;5.40;69.60
15394;DHT22;7795;47.986;11.868;2023-03-01T10:25:54;5.40;69.70
15394;DHT22;7795;47.986;11.868;2023-03-01T10:28:26;5.40;69.80
15394;DHT22;7795;47.986;11.868;2023-03-01T10:30:52;5.50;69.70
15394;DHT22;7795;47.986;11.868;2023-03-01T10:33:21;5.50;69.70
15394;DHT22;7795;47.986;11.868;2023-03-01T10:35:50;5.50;69.70
15394;DHT22;7795;47.986;11.868;2023-03-01T10:38:16;5.50;69.70
15394;DHT22;7795;47.986;11.868;2023-03-01T10:40:53;5.50;69.40
15394;DHT22;7795;47.986;11.868;2023-03-01T10:43:20;5.50;69.30
15394;DHT22;7795;47.986;11.868;2023-03-01T10:45:47;5.50;69.30
15394;DHT22;7795;47.986;11.868;2023-03-01T10:48:15;5.50;69.30
15394;DHT22;7795;47.986;11.868;2023-03-01T10:50:43;5.50;69.20
15394;DHT22;7795;47.986;11.868;2023-03-01T10:53:22;5.50;69.30
15394;DHT22;7795;47.986;11.868;2023-03-01T10:55:58;5.50;69.10
15394;DHT22;7795;47.986;11.868;2023-03-01T10:58:24;5.50;69.30
15394;DHT22;7795;47.986;11.868;2023-03-01T11:00:52;5.50;69.50
15394;DHT22;7795;47.986;11.868;2023-03-01T11:03:21;5.50;69.60
15394;DHT22;7795;47.986;11.868;2023-03-01T11:06:06;5.50;69.40
15394;DHT22;7795;47.986;11.868;2023-03-01T11:08:48;5.50;69.20
15394;DHT22;7795;47.986;11.868;2023-03-01T11:11:32;5.60;69.40
15394;DHT22;7795;47.986;11.868;2023-03-01T11:14:00;5.70;69.30
15394;DHT22;7795;47.986;11.868;2023-03-01T11:16:30;5.70;69.40
15394;DHT22;7795;47.986;11.868;2023-03-01T11:18:58;5.70;69.30
15394;DHT22;7795;47.986;11.868;2023-03-01T11:21:26;5.80;69.50
15394;DHT22;7795;47.986;11.868;2023-03-01T11:23:55;5.80;69.40
15394;DHT22;7795;47.986;11.868;2023-03-01T11:26:21;5.90;69.00
15394;DHT22;7795;47.986;11.868;2023-03-01T11:28:50;5.90;69.10
15394;DHT22;7795;47.986;11.868;2023-03-01T11:31:17;6.00;69.20
15394;DHT22;7795;47.986;11.868;2023-03-01T11:33:46;6.00;69.20
15394;DHT22;7795;47.986;11.868;2023-03-01T11:36:19;6.00;69.00
15394;DHT22;7795;47.986;11.868;2023-03-01T11:38:50;6.10;68.80
15394;DHT22;7795;47.986;11.868;2023-03-01T11:41:20;6.10;68.90
15394;DHT22;7795;47.986;11.868;2023-03-01T11:43:51;6.10;68.80
15394;DHT22;7795;47.986;11.868;2023-03-01T11:46:40;6.20;68.80
15394;DHT22;7795;47.986;11.868;2023-03-01T11:49:17;6.30;68.80
15394;DHT22;7795;47.986;11.868;2023-03-01T11:51:51;6.30;68.80
15394;DHT22;7795;47.986;11.868;2023-03-01T11:54:30;6.40;69.00
15394;DHT22;7795;47.986;11.868;2023-03-01T11:57:07;6.40;68.70
15394;DHT22;7795;47.986;11.868;2023-03-01T12:00:05;6.50;68.60
15394;DHT22;7795;47.986;11.868;2023-03-01T12:03:04;6.60;68.00
15394;DHT22;7795;47.986;11.868;2023-03-01T12:05:51;6.60;68.00
15394;DHT22;7795;47.986;11.868;2023-03-01T12:08:22;6.60;68.30
15394;DHT22;7795;47.986;11.868;2023-03-01T12:10:57;6.60;68.50
15394;DHT22;7795;47.986;11.868;2023-03-01T12:13:48;6.70;68.50
15394;DHT22;7795;47.986;11.868;2023-03-01T12:16:25;6.80;68.30
15394;DHT22;7795;47.986;11.868;2023-03-01T12:19:15;6.80;68.40
15394;DHT22;7795;47.986;11.868;2023-03-01T12:21:56;6.90;68.20
15394;DHT22;7795;47.986;11.868;2023-03-01T12:24:42;6.90;68.00
15394;DHT22;7795;47.986;11.868;2023-03-01T12:27:26;7.00;67.90
15394;DHT22;7795;47.986;11.868;2023-03-01T12:30:02;7.00;67.80
15394;DHT22;7795;47.986;11.868;2023-03-01T12:32:42;7.00;67.60
15394;DHT22;7795;47.986;11.868;2023-03-01T12:35:23;7.00;67.50
15394;DHT22;7795;47.986;11.868;2023-03-01T12:37:56;7.00;67.30
15394;DHT22;7795;47.986;11.868;2023-03-01T12:41:06;7.00;67.40
15394;DHT22;7795;47.986;11.868;2023-03-01T12:43:44;7.00;67.10
15394;DHT22;7795;47.986;11.868;2023-03-01T12:46:23;7.00;67.50
15394;DHT22;7795;47.986;11.868;2023-03-01T12:49:00;7.00;67.60
15394;DHT22;7795;47.986;11.868;2023-03-01T12:51:31;7.00;67.70
15394;DHT22;7795;47.986;11.868;2023-03-01T12:53:59;7.00;67.80
15394;DHT22;7795;47.986;11.868;2023-03-01T12:56:30;7.10;68.10
15394;DHT22;7795;47.986;11.868;2023-03-01T12:59:02;7.10;68.10
15394;DHT22;7795;47.986;11.868;2023-03-01T13:01:42;7.10;68.00
15394;DHT22;7795;47.986;11.868;2023-03-01T13:04:27;7.20;68.00
15394;DHT22;7795;47.986;11.868;2023-03-01T13:07:02;7.20;67.90
15394;DHT22;7795;47.986;11.868;2023-03-01T13:09:35;7.30;68.10
15394;DHT22;7795;47.986;11.868;2023-03-01T13:15:04;7.30;68.00
15394;DHT22;7795;47.986;11.868;2023-03-01T13:17:46;7.40;68.30
15394;DHT22;7795;47.986;11.868;2023-03-01T13:20:15;7.40;68.10
15394;DHT22;7795;47.986;11.868;2023-03-01T13:22:41;7.50;68.10
15394;DHT22;7795;47.986;11.868;2023-03-01T13:25:15;7.50;68.00
15394;DHT22;7795;47.986;11.868;2023-03-01T13:27:42;7.60;67.90
15394;DHT22;7795;47.986;11.868;2023-03-01T13:30:39;7.60;68.00
15394;DHT22;7795;47.986;11.868;2023-03-01T13:36:09;7.80;67.70
15394;DHT22;7795;47.986;11.868;2023-03-01T13:38:46;7.80;67.80
15394;DHT22;7795;47.986;11.868;2023-03-01T13:41:12;7.90;67.50
15394;DHT22;7795;47.986;11.868;2023-03-01T13:43:40;7.90;67.60
15394;DHT22;7795;47.986;11.868;2023-03-01T13:46:10;7.90;67.50
15394;DHT22;7795;47.986;11.868;2023-03-01T13:48:37;8.00;67.60
15394;DHT22;7795;47.986;11.868;2023-03-01T13:51:06;8.10;68.30
15394;DHT22;7795;47.986;11.868;2023-03-01T13:53:36;8.10;67.40
15394;DHT22;7795;47.986;11.868;2023-03-01T13:56:07;8.10;67.30
15394;DHT22;7795;47.986;11.868;2023-03-01T13:58:46;8.20;67.20
15394;DHT22;7795;47.986;11.868;2023-03-01T14:01:21;8.20;67.10
15394;DHT22;7795;47.986;11.868;2023-03-01T14:03:48;8.20;67.10
15394;DHT22;7795;47.986;11.868;2023-03-01T14:06:15;8.30;67.30
15394;DHT22;7795;47.986;11.868;2023-03-01T14:08:45;8.40;67.10
15394;DHT22;7795;47.986;11.868;2023-03-01T14:11:46;8.40;67.10
15394;DHT22;7795;47.986;11.868;2023-03-01T14:14:36;8.40;66.90
15394;DHT22;7795;47.986;11.868;2023-03-01T14:19:56;8.50;66.90
15394;DHT22;7795;47.986;11.868;2023-03-01T14:22:24;8.50;67.00
15394;DHT22;7795;47.986;11.868;2023-03-01T14:24:56;8.60;67.00
15394;DHT22;7795;47.986;11.868;2023-03-01T14:27:23;8.60;67.00
15394;DHT22;7795;47.986;11.868;2023-03-01T14:29:55;8.60;67.00
15394;DHT22;7795;47.986;11.868;2023-03-01T14:32:24;8.60;66.90
15394;DHT22;7795;47.986;11.868;2023-03-01T14:34:51;8.70;66.70
15394;DHT22;7795;47.986;11.868;2023-03-01T14:37:22;8.70;66.60
15394;DHT22;7795;47.986;11.868;2023-03-01T14:39:50;8.70;66.60
15394;DHT22;7795;47.986;11.868;2023-03-01T14:42:18;8.70;66.60
15394;DHT22;7795;47.986;11.868;2023-03-01T14:44:47;8.70;66.50
15394;DHT22;7795;47.986;11.868;2023-03-01T14:47:16;8.80;66.60
15394;DHT22;7795;47.986;11.868;2023-03-01T14:49:44;8.80;66.60
15394;DHT22;7795;47.986;11.868;2023-03-01T14:52:19;8.80;66.60
15394;DHT22;7795;47.986;11.868;2023-03-01T14:54:48;8.80;66.30
15394;DHT22;7795;47.986;11.868;2023-03-01T14:57:18;8.80;66.40
15394;DHT22;7795;47.986;11.868;2023-03-01T14:59:44;8.80;66.40
15394;DHT22;7795;47.986;11.868;2023-03-01T15:02:14;8.80;66.50
15394;DHT22;7795;47.986;11.868;2023-03-01T15:04:43;8.80;66.50
15394;DHT22;7795;47.986;11.868;2023-03-01T15:07:12;8.80;66.40
15394;DHT22;7795;47.986;11.868;2023-03-01T15:09:39;8.90;67.10
15394;DHT22;7795;47.986;11.868;2023-03-01T15:12:36;8.90;66.30
15394;DHT22;7795;47.986;11.868;2023-03-01T15:15:20;8.90;65.80
15394;DHT22;7795;47.986;11.868;2023-03-01T15:17:52;8.90;65.80
15394;DHT22;7795;47.986;11.868;2023-03-01T15:20:19;8.90;66.00
15394;DHT22;7795;47.986;11.868;2023-03-01T15:22:51;8.90;66.00
15394;DHT22;7795;47.986;11.868;2023-03-01T15:25:19;8.80;66.00
15394;DHT22;7795;47.986;11.868;2023-03-01T15:27:47;8.80;66.00
15394;DHT22;7795;47.986;11.868;2023-03-01T15:30:17;8.80;66.00
15394;DHT22;7795;47.986;11.868;2023-03-01T15:32:45;8.80;65.90
15394;DHT22;7795;47.986;11.868;2023-03-01T15:35:38;8.80;66.00
15394;DHT22;7795;47.986;11.868;2023-03-01T15:38:22;8.80;65.70
15394;DHT22;7795;47.986;11.868;2023-03-01T15:40:49;8.80;66.00
15394;DHT22;7795;47.986;11.868;2023-03-01T15:43:39;8.70;66.00
15394;DHT22;7795;47.986;11.868;2023-03-01T15:46:05;8.70;65.80
15394;DHT22;7795;47.986;11.868;2023-03-01T15:48:38;8.70;66.10
15394;DHT22;7795;47.986;11.868;2023-03-01T15:51:03;8.70;66.10
15394;DHT22;7795;47.986;11.868;2023-03-01T15:53:29;8.70;66.00
15394;DHT22;7795;47.986;11.868;2023-03-01T15:55:55;8.60;66.00
15394;DHT22;7795;47.986;11.868;2023-03-01T15:58:23;8.60;66.00
15394;DHT22;7795;47.986;11.868;2023-03-01T16:00:51;8.60;66.10
15394;DHT22;7795;47.986;11.868;2023-03-01T16:03:21;8.50;66.10
15394;DHT22;7795;47.986;11.868;2023-03-01T16:05:48;8.50;66.10
15394;DHT22;7795;47.986;11.868;2023-03-01T16:08:14;8.50;66.10